sensor_id;sensor_type;location;lat;lon;timestamp;P1;durP1;ratioP1;P2;durP2;ratioP2
64936;SDS011;51452;47.698;19.050;2024-02-16T00:00:08;28.95;;;15.68;;
64936;SDS011;51452;47.698;19.050;2024-02-16T00:02:46;28.35;;;15.20;;
64936;SDS011;51452;47.698;19.050;2024-02-16T00:05:11;29.55;;;14.73;;
64936;SDS011;51452;47.698;19.050;2024-02-16T00:07:37;22.30;;;13.77;;
64936;SDS011;51452;47.698;19.050;2024-02-16T00:10:04;27.05;;;15.25;;
64936;SDS011;51452;47.698;19.050;2024-02-16T00:12:30;28.52;;;15.68;;
64936;SDS011;51452;47.698;19.050;2024-02-16T00:14:57;26.00;;;14.60;;
64936;SDS011;51452;47.698;19.050;2024-02-16T00:17:23;27.63;;;15.32;;
64936;SDS011;51452;47.698;19.050;2024-02-16T00:19:51;24.45;;;14.02;;
64936;SDS011;51452;47.698;19.050;2024-02-16T00:22:20;27.40;;;14.90;;
64936;SDS011;51452;47.698;19.050;2024-02-16T00:24:45;26.58;;;15.32;;
64936;SDS011;51452;47.698;19.050;2024-02-16T00:27:14;28.00;;;15.55;;
64936;SDS011;51452;47.698;19.050;2024-02-16T00:29:40;28.75;;;15.95;;
64936;SDS011;51452;47.698;19.050;2024-02-16T00:32:06;27.17;;;14.25;;
64936;SDS011;51452;47.698;19.050;2024-02-16T00:34:33;28.40;;;15.85;;
64936;SDS011;51452;47.698;19.050;2024-02-16T00:37:01;26.08;;;15.10;;
64936;SDS011;51452;47.698;19.050;2024-02-16T00:39:30;28.55;;;15.73;;
64936;SDS011;51452;47.698;19.050;2024-02-16T00:41:55;26.63;;;14.67;;
64936;SDS011;51452;47.698;19.050;2024-02-16T00:44:20;28.70;;;16.07;;
64936;SDS011;51452;47.698;19.050;2024-02-16T00:46:48;27.35;;;14.98;;
64936;SDS011;51452;47.698;19.050;2024-02-16T00:49:14;27.50;;;15.50;;
64936;SDS011;51452;47.698;19.050;2024-02-16T00:51:39;25.77;;;15.07;;
64936;SDS011;51452;47.698;19.050;2024-02-16T00:54:05;28.10;;;15.47;;
64936;SDS011;51452;47.698;19.050;2024-02-16T00:56:33;23.67;;;14.70;;
64936;SDS011;51452;47.698;19.050;2024-02-16T00:59:02;29.87;;;17.50;;
64936;SDS011;51452;47.698;19.050;2024-02-16T01:01:27;26.07;;;15.17;;
64936;SDS011;51452;47.698;19.050;2024-02-16T01:03:56;30.83;;;15.60;;
64936;SDS011;51452;47.698;19.050;2024-02-16T01:06:22;31.30;;;15.70;;
64936;SDS011;51452;47.698;19.050;2024-02-16T01:08:48;28.07;;;14.83;;
64936;SDS011;51452;47.698;19.050;2024-02-16T01:11:22;28.23;;;17.10;;
64936;SDS011;51452;47.698;19.050;2024-02-16T01:13:57;29.40;;;16.37;;
64936;SDS011;51452;47.698;19.050;2024-02-16T01:16:34;28.40;;;15.47;;
64936;SDS011;51452;47.698;19.050;2024-02-16T01:19:00;34.05;;;16.08;;
64936;SDS011;51452;47.698;19.050;2024-02-16T01:24:55;31.37;;;16.47;;
64936;SDS011;51452;47.698;19.050;2024-02-16T01:33:35;32.63;;;16.93;;
64936;SDS011;51452;47.698;19.050;2024-02-16T01:36:01;31.73;;;16.27;;
64936;SDS011;51452;47.698;19.050;2024-02-16T01:38:27;33.63;;;16.80;;
64936;SDS011;51452;47.698;19.050;2024-02-16T01:40:56;34.73;;;16.50;;
64936;SDS011;51452;47.698;19.050;2024-02-16T01:43:21;29.07;;;16.60;;
64936;SDS011;51452;47.698;19.050;2024-02-16T01:45:47;29.53;;;15.97;;
64936;SDS011;51452;47.698;19.050;2024-02-16T01:48:15;29.73;;;16.27;;
64936;SDS011;51452;47.698;19.050;2024-02-16T01:50:42;35.00;;;16.73;;
64936;SDS011;51452;47.698;19.050;2024-02-16T01:53:09;39.50;;;18.40;;
64936;SDS011;51452;47.698;19.050;2024-02-16T01:55:35;29.00;;;16.23;;
64936;SDS011;51452;47.698;19.050;2024-02-16T01:58:00;32.00;;;16.07;;
64936;SDS011;51452;47.698;19.050;2024-02-16T02:00:26;33.97;;;15.77;;
64936;SDS011;51452;47.698;19.050;2024-02-16T02:02:51;31.87;;;16.33;;
64936;SDS011;51452;47.698;19.050;2024-02-16T02:05:17;30.30;;;16.40;;
64936;SDS011;51452;47.698;19.050;2024-02-16T02:08:22;30.97;;;15.07;;
64936;SDS011;51452;47.698;19.050;2024-02-16T02:10:54;30.27;;;15.50;;
64936;SDS011;51452;47.698;19.050;2024-02-16T02:13:23;30.40;;;16.03;;
64936;SDS011;51452;47.698;19.050;2024-02-16T02:15:51;33.53;;;16.00;;
64936;SDS011;51452;47.698;19.050;2024-02-16T02:18:16;27.50;;;15.57;;
64936;SDS011;51452;47.698;19.050;2024-02-16T02:20:44;27.87;;;15.40;;
64936;SDS011;51452;47.698;19.050;2024-02-16T02:23:30;35.53;;;16.67;;
64936;SDS011;51452;47.698;19.050;2024-02-16T02:26:13;28.93;;;15.53;;
64936;SDS011;51452;47.698;19.050;2024-02-16T02:28:41;30.67;;;15.80;;
64936;SDS011;51452;47.698;19.050;2024-02-16T02:31:07;33.53;;;15.73;;
64936;SDS011;51452;47.698;19.050;2024-02-16T02:33:34;29.33;;;16.83;;
64936;SDS011;51452;47.698;19.050;2024-02-16T02:35:59;32.20;;;16.50;;
64936;SDS011;51452;47.698;19.050;2024-02-16T02:38:31;33.77;;;16.27;;
64936;SDS011;51452;47.698;19.050;2024-02-16T02:40:56;29.37;;;15.97;;
64936;SDS011;51452;47.698;19.050;2024-02-16T02:43:24;31.67;;;16.47;;
64936;SDS011;51452;47.698;19.050;2024-02-16T02:45:50;30.17;;;15.67;;
64936;SDS011;51452;47.698;19.050;2024-02-16T02:48:15;31.17;;;15.03;;
64936;SDS011;51452;47.698;19.050;2024-02-16T02:50:41;32.97;;;15.20;;
64936;SDS011;51452;47.698;19.050;2024-02-16T02:53:06;28.80;;;14.23;;
64936;SDS011;51452;47.698;19.050;2024-02-16T02:55:32;24.33;;;14.53;;
64936;SDS011;51452;47.698;19.050;2024-02-16T02:57:57;27.47;;;15.23;;
64936;SDS011;51452;47.698;19.050;2024-02-16T03:00:26;28.07;;;16.30;;
64936;SDS011;51452;47.698;19.050;2024-02-16T03:02:51;30.17;;;15.93;;
64936;SDS011;51452;47.698;19.050;2024-02-16T03:05:20;29.07;;;15.60;;
64936;SDS011;51452;47.698;19.050;2024-02-16T03:07:46;30.27;;;15.77;;
64936;SDS011;51452;47.698;19.050;2024-02-16T03:10:15;30.80;;;16.60;;
64936;SDS011;51452;47.698;19.050;2024-02-16T03:12:49;34.57;;;19.20;;
64936;SDS011;51452;47.698;19.050;2024-02-16T03:15:15;35.70;;;18.73;;
64936;SDS011;51452;47.698;19.050;2024-02-16T03:17:44;33.03;;;17.40;;
64936;SDS011;51452;47.698;19.050;2024-02-16T03:20:09;32.17;;;16.50;;
64936;SDS011;51452;47.698;19.050;2024-02-16T03:22:36;28.03;;;16.17;;
64936;SDS011;51452;47.698;19.050;2024-02-16T03:25:01;28.80;;;15.37;;
64936;SDS011;51452;47.698;19.050;2024-02-16T03:27:26;29.67;;;15.40;;
64936;SDS011;51452;47.698;19.050;2024-02-16T03:29:52;31.97;;;16.40;;
64936;SDS011;51452;47.698;19.050;2024-02-16T03:32:18;27.13;;;15.30;;
64936;SDS011;51452;47.698;19.050;2024-02-16T03:34:43;28.03;;;14.87;;
64936;SDS011;51452;47.698;19.050;2024-02-16T03:37:11;32.33;;;15.13;;
64936;SDS011;51452;47.698;19.050;2024-02-16T03:39:41;25.43;;;14.33;;
64936;SDS011;51452;47.698;19.050;2024-02-16T03:42:06;27.17;;;14.33;;
64936;SDS011;51452;47.698;19.050;2024-02-16T03:44:32;27.47;;;14.73;;
64936;SDS011;51452;47.698;19.050;2024-02-16T03:47:02;30.53;;;15.87;;
64936;SDS011;51452;47.698;19.050;2024-02-16T03:49:31;27.93;;;15.03;;
64936;SDS011;51452;47.698;19.050;2024-02-16T03:51:57;26.60;;;14.07;;
64936;SDS011;51452;47.698;19.050;2024-02-16T03:54:26;26.90;;;15.23;;
64936;SDS011;51452;47.698;19.050;2024-02-16T03:56:57;23.77;;;13.03;;
64936;SDS011;51452;47.698;19.050;2024-02-16T03:59:28;27.57;;;14.60;;
64936;SDS011;51452;47.698;19.050;2024-02-16T04:02:19;28.37;;;14.50;;
64936;SDS011;51452;47.698;19.050;2024-02-16T04:04:45;27.07;;;15.03;;
64936;SDS011;51452;47.698;19.050;2024-02-16T04:07:19;24.20;;;13.75;;
64936;SDS011;51452;47.698;19.050;2024-02-16T04:09:45;26.87;;;14.33;;
64936;SDS011;51452;47.698;19.050;2024-02-16T04:12:27;24.83;;;14.20;;
64936;SDS011;51452;47.698;19.050;2024-02-16T04:14:55;25.57;;;14.30;;
64936;SDS011;51452;47.698;19.050;2024-02-16T04:17:21;28.63;;;14.10;;
64936;SDS011;51452;47.698;19.050;2024-02-16T04:19:51;23.37;;;13.77;;
64936;SDS011;51452;47.698;19.050;2024-02-16T04:22:21;27.67;;;14.93;;
64936;SDS011;51452;47.698;19.050;2024-02-16T04:28:08;30.77;;;14.77;;
64936;SDS011;51452;47.698;19.050;2024-02-16T04:30:54;32.33;;;15.38;;
64936;SDS011;51452;47.698;19.050;2024-02-16T04:33:40;26.97;;;14.80;;
64936;SDS011;51452;47.698;19.050;2024-02-16T04:38:36;27.40;;;16.43;;
64936;SDS011;51452;47.698;19.050;2024-02-16T04:41:10;30.93;;;16.77;;
64936;SDS011;51452;47.698;19.050;2024-02-16T04:43:39;27.10;;;14.70;;
64936;SDS011;51452;47.698;19.050;2024-02-16T04:46:04;30.63;;;16.00;;
64936;SDS011;51452;47.698;19.050;2024-02-16T04:49:08;30.43;;;16.03;;
64936;SDS011;51452;47.698;19.050;2024-02-16T04:51:36;29.67;;;16.37;;
64936;SDS011;51452;47.698;19.050;2024-02-16T04:54:04;30.17;;;15.70;;
64936;SDS011;51452;47.698;19.050;2024-02-16T04:56:42;30.30;;;16.20;;
64936;SDS011;51452;47.698;19.050;2024-02-16T04:59:28;29.87;;;15.77;;
64936;SDS011;51452;47.698;19.050;2024-02-16T05:01:56;30.13;;;15.80;;
64936;SDS011;51452;47.698;19.050;2024-02-16T05:04:34;29.63;;;16.10;;
64936;SDS011;51452;47.698;19.050;2024-02-16T05:07:15;31.17;;;16.23;;
64936;SDS011;51452;47.698;19.050;2024-02-16T05:09:40;29.03;;;15.03;;
64936;SDS011;51452;47.698;19.050;2024-02-16T05:12:09;36.37;;;15.57;;
64936;SDS011;51452;47.698;19.050;2024-02-16T05:14:36;26.37;;;15.33;;
64936;SDS011;51452;47.698;19.050;2024-02-16T05:17:02;29.73;;;15.73;;
64936;SDS011;51452;47.698;19.050;2024-02-16T05:19:34;28.97;;;15.53;;
64936;SDS011;51452;47.698;19.050;2024-02-16T05:22:02;30.67;;;15.73;;
64936;SDS011;51452;47.698;19.050;2024-02-16T05:24:33;26.93;;;14.87;;
64936;SDS011;51452;47.698;19.050;2024-02-16T05:26:58;31.53;;;16.17;;
64936;SDS011;51452;47.698;19.050;2024-02-16T05:29:50;29.53;;;14.60;;
64936;SDS011;51452;47.698;19.050;2024-02-16T05:33:07;32.77;;;15.97;;
64936;SDS011;51452;47.698;19.050;2024-02-16T05:35:32;28.92;;;16.13;;
64936;SDS011;51452;47.698;19.050;2024-02-16T05:37:59;26.63;;;14.70;;
64936;SDS011;51452;47.698;19.050;2024-02-16T05:40:31;27.67;;;14.73;;
64936;SDS011;51452;47.698;19.050;2024-02-16T05:43:18;30.27;;;14.80;;
64936;SDS011;51452;47.698;19.050;2024-02-16T05:45:46;26.13;;;15.03;;
64936;SDS011;51452;47.698;19.050;2024-02-16T05:48:12;26.43;;;14.50;;
64936;SDS011;51452;47.698;19.050;2024-02-16T05:50:37;24.50;;;13.97;;
64936;SDS011;51452;47.698;19.050;2024-02-16T05:53:03;27.50;;;14.67;;
64936;SDS011;51452;47.698;19.050;2024-02-16T05:55:32;29.07;;;14.70;;
64936;SDS011;51452;47.698;19.050;2024-02-16T05:57:57;23.87;;;14.00;;
64936;SDS011;51452;47.698;19.050;2024-02-16T06:00:23;24.70;;;14.13;;
64936;SDS011;51452;47.698;19.050;2024-02-16T06:02:49;30.13;;;14.17;;
64936;SDS011;51452;47.698;19.050;2024-02-16T06:05:14;26.73;;;13.87;;
64936;SDS011;51452;47.698;19.050;2024-02-16T06:07:40;25.23;;;14.53;;
64936;SDS011;51452;47.698;19.050;2024-02-16T06:10:08;24.70;;;14.50;;
64936;SDS011;51452;47.698;19.050;2024-02-16T06:12:37;27.80;;;14.37;;
64936;SDS011;51452;47.698;19.050;2024-02-16T06:15:03;26.20;;;14.20;;
64936;SDS011;51452;47.698;19.050;2024-02-16T06:17:29;25.03;;;13.80;;
64936;SDS011;51452;47.698;19.050;2024-02-16T06:19:55;25.03;;;13.70;;
64936;SDS011;51452;47.698;19.050;2024-02-16T06:22:20;24.40;;;13.23;;
64936;SDS011;51452;47.698;19.050;2024-02-16T06:24:45;31.23;;;13.30;;
64936;SDS011;51452;47.698;19.050;2024-02-16T06:27:11;29.80;;;14.23;;
64936;SDS011;51452;47.698;19.050;2024-02-16T06:29:36;28.17;;;14.93;;
64936;SDS011;51452;47.698;19.050;2024-02-16T06:32:02;28.17;;;14.80;;
64936;SDS011;51452;47.698;19.050;2024-02-16T06:34:27;26.63;;;14.77;;
64936;SDS011;51452;47.698;19.050;2024-02-16T06:36:53;27.50;;;15.03;;
64936;SDS011;51452;47.698;19.050;2024-02-16T06:39:22;26.80;;;14.00;;
64936;SDS011;51452;47.698;19.050;2024-02-16T06:41:47;30.07;;;15.13;;
64936;SDS011;51452;47.698;19.050;2024-02-16T06:44:14;27.97;;;14.53;;
64936;SDS011;51452;47.698;19.050;2024-02-16T06:46:40;29.07;;;15.40;;
64936;SDS011;51452;47.698;19.050;2024-02-16T06:49:06;26.03;;;13.83;;
64936;SDS011;51452;47.698;19.050;2024-02-16T06:51:32;26.40;;;13.80;;
64936;SDS011;51452;47.698;19.050;2024-02-16T06:53:57;20.87;;;12.13;;
64936;SDS011;51452;47.698;19.050;2024-02-16T06:56:23;23.90;;;13.40;;
64936;SDS011;51452;47.698;19.050;2024-02-16T06:58:49;30.13;;;15.40;;
64936;SDS011;51452;47.698;19.050;2024-02-16T07:01:14;31.63;;;15.37;;
64936;SDS011;51452;47.698;19.050;2024-02-16T07:03:43;30.10;;;15.83;;
64936;SDS011;51452;47.698;19.050;2024-02-16T07:06:09;28.50;;;15.47;;
64936;SDS011;51452;47.698;19.050;2024-02-16T07:08:41;28.67;;;15.93;;
64936;SDS011;51452;47.698;19.050;2024-02-16T07:11:07;33.03;;;16.03;;
64936;SDS011;51452;47.698;19.050;2024-02-16T07:13:37;31.07;;;16.83;;
64936;SDS011;51452;47.698;19.050;2024-02-16T07:16:02;33.90;;;17.27;;
64936;SDS011;51452;47.698;19.050;2024-02-16T07:18:34;30.33;;;17.00;;
64936;SDS011;51452;47.698;19.050;2024-02-16T07:21:04;28.97;;;16.07;;
64936;SDS011;51452;47.698;19.050;2024-02-16T07:24:28;29.93;;;15.83;;
64936;SDS011;51452;47.698;19.050;2024-02-16T07:27:55;28.10;;;16.50;;
64936;SDS011;51452;47.698;19.050;2024-02-16T07:30:20;35.20;;;17.80;;
64936;SDS011;51452;47.698;19.050;2024-02-16T07:32:49;32.20;;;16.87;;
64936;SDS011;51452;47.698;19.050;2024-02-16T07:35:18;31.97;;;17.13;;
64936;SDS011;51452;47.698;19.050;2024-02-16T07:37:43;31.03;;;14.93;;
64936;SDS011;51452;47.698;19.050;2024-02-16T07:40:09;31.10;;;16.47;;
64936;SDS011;51452;47.698;19.050;2024-02-16T07:42:38;35.00;;;17.63;;
64936;SDS011;51452;47.698;19.050;2024-02-16T07:45:05;30.83;;;16.13;;
64936;SDS011;51452;47.698;19.050;2024-02-16T07:47:31;27.67;;;15.50;;
64936;SDS011;51452;47.698;19.050;2024-02-16T07:49:57;34.57;;;17.20;;
64936;SDS011;51452;47.698;19.050;2024-02-16T07:52:23;25.90;;;15.20;;
64936;SDS011;51452;47.698;19.050;2024-02-16T07:54:48;26.10;;;15.70;;
64936;SDS011;51452;47.698;19.050;2024-02-16T07:57:16;29.50;;;16.13;;
64936;SDS011;51452;47.698;19.050;2024-02-16T07:59:42;28.97;;;14.30;;
64936;SDS011;51452;47.698;19.050;2024-02-16T08:02:08;26.00;;;14.20;;
64936;SDS011;51452;47.698;19.050;2024-02-16T08:04:34;25.03;;;13.37;;
64936;SDS011;51452;47.698;19.050;2024-02-16T08:07:00;30.40;;;14.83;;
64936;SDS011;51452;47.698;19.050;2024-02-16T08:09:26;29.83;;;14.50;;
64936;SDS011;51452;47.698;19.050;2024-02-16T08:11:52;32.37;;;16.67;;
64936;SDS011;51452;47.698;19.050;2024-02-16T08:14:17;27.67;;;13.77;;
64936;SDS011;51452;47.698;19.050;2024-02-16T08:16:43;27.40;;;14.70;;
64936;SDS011;51452;47.698;19.050;2024-02-16T08:19:08;24.80;;;14.30;;
64936;SDS011;51452;47.698;19.050;2024-02-16T08:21:33;30.03;;;14.13;;
64936;SDS011;51452;47.698;19.050;2024-02-16T08:23:59;24.17;;;13.50;;
64936;SDS011;51452;47.698;19.050;2024-02-16T08:26:24;28.23;;;15.17;;
64936;SDS011;51452;47.698;19.050;2024-02-16T08:28:50;29.50;;;15.37;;
64936;SDS011;51452;47.698;19.050;2024-02-16T08:31:17;27.63;;;16.03;;
64936;SDS011;51452;47.698;19.050;2024-02-16T08:33:43;31.17;;;15.47;;
64936;SDS011;51452;47.698;19.050;2024-02-16T08:36:10;23.87;;;12.50;;
64936;SDS011;51452;47.698;19.050;2024-02-16T08:38:36;22.27;;;12.27;;
64936;SDS011;51452;47.698;19.050;2024-02-16T08:41:02;22.90;;;12.00;;
64936;SDS011;51452;47.698;19.050;2024-02-16T08:43:28;18.70;;;11.30;;
64936;SDS011;51452;47.698;19.050;2024-02-16T08:45:54;20.05;;;11.88;;
64936;SDS011;51452;47.698;19.050;2024-02-16T08:48:19;20.93;;;11.80;;
64936;SDS011;51452;47.698;19.050;2024-02-16T08:50:45;19.80;;;11.93;;
64936;SDS011;51452;47.698;19.050;2024-02-16T08:53:13;21.97;;;10.97;;
64936;SDS011;51452;47.698;19.050;2024-02-16T08:55:39;19.90;;;11.07;;
64936;SDS011;51452;47.698;19.050;2024-02-16T08:58:07;21.77;;;11.07;;
64936;SDS011;51452;47.698;19.050;2024-02-16T09:00:33;22.70;;;11.83;;
64936;SDS011;51452;47.698;19.050;2024-02-16T09:02:59;19.80;;;11.63;;
64936;SDS011;51452;47.698;19.050;2024-02-16T09:05:27;20.93;;;11.07;;
64936;SDS011;51452;47.698;19.050;2024-02-16T09:07:52;21.92;;;11.57;;
64936;SDS011;51452;47.698;19.050;2024-02-16T09:10:18;18.67;;;10.87;;
64936;SDS011;51452;47.698;19.050;2024-02-16T09:12:43;22.07;;;11.87;;
64936;SDS011;51452;47.698;19.050;2024-02-16T09:15:09;27.40;;;12.73;;
64936;SDS011;51452;47.698;19.050;2024-02-16T09:17:42;23.37;;;12.33;;
64936;SDS011;51452;47.698;19.050;2024-02-16T09:20:08;22.43;;;11.50;;
64936;SDS011;51452;47.698;19.050;2024-02-16T09:22:35;22.10;;;11.47;;
64936;SDS011;51452;47.698;19.050;2024-02-16T09:25:01;24.10;;;13.25;;
64936;SDS011;51452;47.698;19.050;2024-02-16T09:27:28;25.63;;;12.57;;
64936;SDS011;51452;47.698;19.050;2024-02-16T09:29:53;22.30;;;12.73;;
64936;SDS011;51452;47.698;19.050;2024-02-16T09:32:19;24.90;;;13.13;;
64936;SDS011;51452;47.698;19.050;2024-02-16T09:34:44;24.08;;;13.07;;
64936;SDS011;51452;47.698;19.050;2024-02-16T09:37:09;20.80;;;12.57;;
64936;SDS011;51452;47.698;19.050;2024-02-16T09:39:36;20.02;;;10.05;;
64936;SDS011;51452;47.698;19.050;2024-02-16T09:42:02;20.00;;;10.65;;
64936;SDS011;51452;47.698;19.050;2024-02-16T09:44:28;19.30;;;11.13;;
64936;SDS011;51452;47.698;19.050;2024-02-16T09:46:54;17.40;;;10.73;;
64936;SDS011;51452;47.698;19.050;2024-02-16T09:49:20;17.13;;;9.70;;
64936;SDS011;51452;47.698;19.050;2024-02-16T09:51:45;21.40;;;9.80;;
64936;SDS011;51452;47.698;19.050;2024-02-16T09:54:10;19.70;;;10.82;;
64936;SDS011;51452;47.698;19.050;2024-02-16T09:56:37;17.60;;;10.18;;
64936;SDS011;51452;47.698;19.050;2024-02-16T09:59:03;16.67;;;10.05;;
64936;SDS011;51452;47.698;19.050;2024-02-16T10:01:28;17.67;;;10.30;;
64936;SDS011;51452;47.698;19.050;2024-02-16T10:03:59;19.20;;;10.68;;
64936;SDS011;51452;47.698;19.050;2024-02-16T10:06:31;19.08;;;10.63;;
64936;SDS011;51452;47.698;19.050;2024-02-16T10:08:56;19.35;;;10.88;;
64936;SDS011;51452;47.698;19.050;2024-02-16T10:11:23;17.20;;;10.07;;
64936;SDS011;51452;47.698;19.050;2024-02-16T10:16:21;19.05;;;10.27;;
64936;SDS011;51452;47.698;19.050;2024-02-16T10:18:47;19.58;;;9.95;;
64936;SDS011;51452;47.698;19.050;2024-02-16T10:21:12;16.42;;;10.23;;
64936;SDS011;51452;47.698;19.050;2024-02-16T10:23:38;19.20;;;10.57;;
64936;SDS011;51452;47.698;19.050;2024-02-16T10:26:03;18.92;;;10.75;;
64936;SDS011;51452;47.698;19.050;2024-02-16T10:28:28;20.73;;;11.13;;
64936;SDS011;51452;47.698;19.050;2024-02-16T10:30:59;18.15;;;10.43;;
64936;SDS011;51452;47.698;19.050;2024-02-16T10:33:29;18.98;;;9.63;;
64936;SDS011;51452;47.698;19.050;2024-02-16T10:35:57;18.92;;;10.52;;
64936;SDS011;51452;47.698;19.050;2024-02-16T10:38:23;18.65;;;9.93;;
64936;SDS011;51452;47.698;19.050;2024-02-16T10:40:50;17.73;;;10.50;;
64936;SDS011;51452;47.698;19.050;2024-02-16T10:43:16;20.75;;;10.70;;
64936;SDS011;51452;47.698;19.050;2024-02-16T10:45:43;18.58;;;9.73;;
64936;SDS011;51452;47.698;19.050;2024-02-16T10:48:10;16.25;;;9.07;;
64936;SDS011;51452;47.698;19.050;2024-02-16T10:50:35;19.00;;;9.48;;
64936;SDS011;51452;47.698;19.050;2024-02-16T10:53:04;18.27;;;9.60;;
64936;SDS011;51452;47.698;19.050;2024-02-16T10:55:33;16.30;;;9.07;;
64936;SDS011;51452;47.698;19.050;2024-02-16T10:57:58;16.60;;;9.38;;
64936;SDS011;51452;47.698;19.050;2024-02-16T11:00:25;18.25;;;8.77;;
64936;SDS011;51452;47.698;19.050;2024-02-16T11:03:01;19.50;;;8.27;;
64936;SDS011;51452;47.698;19.050;2024-02-16T11:05:32;14.15;;;8.43;;
64936;SDS011;51452;47.698;19.050;2024-02-16T11:08:00;12.45;;;7.45;;
64936;SDS011;51452;47.698;19.050;2024-02-16T11:10:26;11.07;;;6.40;;
64936;SDS011;51452;47.698;19.050;2024-02-16T11:12:51;13.93;;;7.75;;
64936;SDS011;51452;47.698;19.050;2024-02-16T11:15:27;15.70;;;8.25;;
64936;SDS011;51452;47.698;19.050;2024-02-16T11:17:55;14.32;;;7.90;;
64936;SDS011;51452;47.698;19.050;2024-02-16T11:20:24;14.90;;;8.23;;
64936;SDS011;51452;47.698;19.050;2024-02-16T11:22:51;14.15;;;8.10;;
64936;SDS011;51452;47.698;19.050;2024-02-16T11:25:17;12.27;;;6.93;;
64936;SDS011;51452;47.698;19.050;2024-02-16T11:27:43;15.52;;;8.07;;
64936;SDS011;51452;47.698;19.050;2024-02-16T11:30:11;13.35;;;7.70;;
64936;SDS011;51452;47.698;19.050;2024-02-16T11:32:36;14.32;;;8.15;;
64936;SDS011;51452;47.698;19.050;2024-02-16T11:35:06;12.88;;;7.38;;
64936;SDS011;51452;47.698;19.050;2024-02-16T11:37:32;13.90;;;7.57;;
64936;SDS011;51452;47.698;19.050;2024-02-16T11:39:58;13.80;;;6.53;;
64936;SDS011;51452;47.698;19.050;2024-02-16T11:42:23;11.68;;;6.13;;
64936;SDS011;51452;47.698;19.050;2024-02-16T11:45:04;13.13;;;6.38;;
64936;SDS011;51452;47.698;19.050;2024-02-16T11:47:31;10.95;;;6.35;;
64936;SDS011;51452;47.698;19.050;2024-02-16T11:50:00;11.73;;;6.00;;
64936;SDS011;51452;47.698;19.050;2024-02-16T11:52:27;10.25;;;5.60;;
64936;SDS011;51452;47.698;19.050;2024-02-16T11:54:52;10.88;;;6.22;;
64936;SDS011;51452;47.698;19.050;2024-02-16T11:57:17;8.75;;;5.55;;
64936;SDS011;51452;47.698;19.050;2024-02-16T11:59:43;7.97;;;5.13;;
64936;SDS011;51452;47.698;19.050;2024-02-16T12:02:16;10.43;;;5.80;;
64936;SDS011;51452;47.698;19.050;2024-02-16T12:04:44;12.55;;;6.65;;
64936;SDS011;51452;47.698;19.050;2024-02-16T12:07:11;10.43;;;6.60;;
64936;SDS011;51452;47.698;19.050;2024-02-16T12:09:37;9.38;;;6.00;;
64936;SDS011;51452;47.698;19.050;2024-02-16T12:12:04;11.07;;;5.90;;
64936;SDS011;51452;47.698;19.050;2024-02-16T12:14:30;12.55;;;6.65;;
64936;SDS011;51452;47.698;19.050;2024-02-16T12:16:56;10.35;;;6.25;;
64936;SDS011;51452;47.698;19.050;2024-02-16T12:19:22;12.63;;;6.22;;
64936;SDS011;51452;47.698;19.050;2024-02-16T12:21:49;8.50;;;5.25;;
64936;SDS011;51452;47.698;19.050;2024-02-16T12:24:16;7.72;;;4.75;;
64936;SDS011;51452;47.698;19.050;2024-02-16T12:26:42;8.88;;;5.25;;
64936;SDS011;51452;47.698;19.050;2024-02-16T12:29:07;12.40;;;6.22;;
64936;SDS011;51452;47.698;19.050;2024-02-16T12:31:37;12.02;;;6.30;;
64936;SDS011;51452;47.698;19.050;2024-02-16T12:34:03;10.77;;;5.80;;
64936;SDS011;51452;47.698;19.050;2024-02-16T12:36:30;10.50;;;5.40;;
64936;SDS011;51452;47.698;19.050;2024-02-16T12:38:55;10.10;;;5.47;;
64936;SDS011;51452;47.698;19.050;2024-02-16T12:41:21;12.70;;;6.30;;
64936;SDS011;51452;47.698;19.050;2024-02-16T12:43:46;16.27;;;6.70;;
64936;SDS011;51452;47.698;19.050;2024-02-16T12:46:12;8.63;;;5.50;;
64936;SDS011;51452;47.698;19.050;2024-02-16T12:48:37;8.43;;;5.35;;
64936;SDS011;51452;47.698;19.050;2024-02-16T12:51:02;10.20;;;5.22;;
64936;SDS011;51452;47.698;19.050;2024-02-16T12:53:28;9.90;;;5.38;;
64936;SDS011;51452;47.698;19.050;2024-02-16T12:56:00;7.35;;;4.45;;
64936;SDS011;51452;47.698;19.050;2024-02-16T12:58:26;7.30;;;4.25;;
64936;SDS011;51452;47.698;19.050;2024-02-16T13:00:52;12.07;;;4.55;;
64936;SDS011;51452;47.698;19.050;2024-02-16T13:03:18;8.82;;;4.78;;
64936;SDS011;51452;47.698;19.050;2024-02-16T13:05:43;10.07;;;5.50;;
64936;SDS011;51452;47.698;19.050;2024-02-16T13:08:08;6.95;;;4.30;;
64936;SDS011;51452;47.698;19.050;2024-02-16T13:10:34;8.85;;;5.20;;
64936;SDS011;51452;47.698;19.050;2024-02-16T13:12:59;10.50;;;6.03;;
64936;SDS011;51452;47.698;19.050;2024-02-16T13:15:24;8.30;;;5.13;;
64936;SDS011;51452;47.698;19.050;2024-02-16T13:17:50;6.95;;;4.78;;
64936;SDS011;51452;47.698;19.050;2024-02-16T13:20:15;8.25;;;5.28;;
64936;SDS011;51452;47.698;19.050;2024-02-16T13:22:40;8.02;;;5.38;;
64936;SDS011;51452;47.698;19.050;2024-02-16T13:25:06;10.88;;;5.82;;
64936;SDS011;51452;47.698;19.050;2024-02-16T13:27:33;10.43;;;5.22;;
64936;SDS011;51452;47.698;19.050;2024-02-16T13:29:59;11.68;;;5.85;;
64936;SDS011;51452;47.698;19.050;2024-02-16T13:32:25;11.05;;;6.15;;
64936;SDS011;51452;47.698;19.050;2024-02-16T13:34:51;12.18;;;5.75;;
64936;SDS011;51452;47.698;19.050;2024-02-16T13:37:16;8.75;;;5.18;;
64936;SDS011;51452;47.698;19.050;2024-02-16T13:39:41;9.40;;;5.68;;
64936;SDS011;51452;47.698;19.050;2024-02-16T13:42:07;7.25;;;4.70;;
64936;SDS011;51452;47.698;19.050;2024-02-16T13:44:32;10.20;;;5.65;;
64936;SDS011;51452;47.698;19.050;2024-02-16T13:46:58;9.90;;;6.15;;
64936;SDS011;51452;47.698;19.050;2024-02-16T13:49:23;7.90;;;5.80;;
64936;SDS011;51452;47.698;19.050;2024-02-16T13:51:48;7.88;;;4.93;;
64936;SDS011;51452;47.698;19.050;2024-02-16T13:54:14;10.18;;;6.35;;
64936;SDS011;51452;47.698;19.050;2024-02-16T13:56:39;9.88;;;6.47;;
64936;SDS011;51452;47.698;19.050;2024-02-16T13:59:05;10.73;;;6.05;;
64936;SDS011;51452;47.698;19.050;2024-02-16T14:01:32;9.48;;;5.50;;
64936;SDS011;51452;47.698;19.050;2024-02-16T14:03:59;11.85;;;6.07;;
64936;SDS011;51452;47.698;19.050;2024-02-16T14:06:24;11.02;;;5.60;;
64936;SDS011;51452;47.698;19.050;2024-02-16T14:08:50;9.82;;;5.28;;
64936;SDS011;51452;47.698;19.050;2024-02-16T14:11:17;11.95;;;6.30;;
64936;SDS011;51452;47.698;19.050;2024-02-16T14:13:43;13.50;;;6.97;;
64936;SDS011;51452;47.698;19.050;2024-02-16T14:16:09;9.25;;;5.55;;
64936;SDS011;51452;47.698;19.050;2024-02-16T14:18:35;13.07;;;5.25;;
64936;SDS011;51452;47.698;19.050;2024-02-16T14:21:01;9.27;;;4.75;;
64936;SDS011;51452;47.698;19.050;2024-02-16T14:23:28;12.73;;;5.97;;
64936;SDS011;51452;47.698;19.050;2024-02-16T14:25:54;10.00;;;5.95;;
64936;SDS011;51452;47.698;19.050;2024-02-16T14:28:19;9.48;;;5.60;;
64936;SDS011;51452;47.698;19.050;2024-02-16T14:30:45;10.70;;;6.15;;
64936;SDS011;51452;47.698;19.050;2024-02-16T14:33:10;11.55;;;5.65;;
64936;SDS011;51452;47.698;19.050;2024-02-16T14:35:36;10.10;;;5.38;;